Time;durP1;ratioP1;P1;durP2;ratioP2;P2;SDS_P1;SDS_P2;PMS_P1;PMS_P2;Temp;Humidity;BMP_temperature;BMP_pressure;BME280_temperature;BME280_humidity;BME280_pressure;Samples;Min_cycle;Max_cycle;Signal;HPM_P1;HPM_P2
2022/01/29 00:00:01;;;;;;;9.57;4.63;;;6.60;99.90;;;;;;4996061;28;20404;-83
2022/01/29 00:02:26;;;;;;;7.45;5.78;;;6.70;99.90;;;;;;5006980;28;20046;-85
2022/01/29 00:04:52;;;;;;;6.88;3.90;;;6.70;99.90;;;;;;4993824;28;20112;-83
2022/01/29 00:07:18;;;;;;;11.77;4.60;;;6.80;99.90;;;;;;4997616;28;20464;-83
2022/01/29 00:09:45;;;;;;;6.32;3.42;;;6.70;99.90;;;;;;4994150;28;20053;-83
2022/01/29 00:12:11;;;;;;;7.78;5.03;;;6.80;99.90;;;;;;4983385;28;20114;-83
2022/01/29 00:14:37;;;;;;;6.20;4.00;;;6.80;99.90;;;;;;4989601;28;20050;-84
2022/01/29 00:17:03;;;;;;;8.70;4.80;;;6.80;99.90;;;;;;5005169;28;20100;-83
2022/01/29 00:19:29;;;;;;;;;;;6.90;99.90;;;;;;4990886;28;20109;-84
2022/01/29 00:21:54;;;;;;;8.57;5.72;;;6.80;99.90;;;;;;4980521;28;19922;-81
2022/01/29 00:24:20;;;;;;;6.75;4.22;;;7.00;99.90;;;;;;5006418;28;20050;-85
2022/01/29 00:26:46;;;;;;;13.23;4.55;;;6.90;99.90;;;;;;4990384;28;20046;-83
2022/01/29 00:29:21;;;;;;;4.05;3.28;;;6.90;99.90;;;;;;4991293;28;20132;-84
2022/01/29 00:31:46;;;;;;;11.93;5.40;;;6.80;99.90;;;;;;4979942;28;20488;-85
2022/01/29 00:34:13;;;;;;;10.65;4.80;;;6.90;99.90;;;;;;4995764;28;20053;-83
2022/01/29 00:36:38;;;;;;;11.23;6.80;;;6.90;99.90;;;;;;4999428;28;20042;-81
2022/01/29 00:39:04;;;;;;;17.80;6.50;;;6.90;99.90;;;;;;4991073;28;20226;-84
2022/01/29 00:41:30;;;;;;;11.98;5.35;;;7.00;99.90;;;;;;4992095;28;20169;-83
2022/01/29 00:43:56;;;;;;;13.18;7.35;;;6.90;99.90;;;;;;4993649;28;20484;-84
2022/01/29 00:46:22;;;;;;;8.73;4.90;;;6.80;99.90;;;;;;5004199;28;20563;-85
2022/01/29 00:48:47;;;;;;;19.02;4.90;;;6.80;99.90;;;;;;4987138;28;20127;-84
2022/01/29 00:51:13;;;;;;;7.03;4.70;;;7.30;99.90;;;;;;4980040;28;20056;-84
2022/01/29 00:53:39;;;;;;;11.23;4.95;;;6.50;99.90;;;;;;4992816;28;20054;-83
2022/01/29 00:56:06;;;;;;;8.20;5.28;;;6.70;99.90;;;;;;4974600;28;20045;-84
2022/01/29 00:58:33;;;;;;;8.90;5.30;;;6.80;99.90;;;;;;4972404;28;20043;-84
2022/01/29 01:00:59;;;;;;;19.35;6.18;;;6.80;99.90;;;;;;4991108;28;20069;-84
2022/01/29 01:03:25;;;;;;;;;;;6.80;99.90;;;;;;4991476;28;20464;-81
2022/01/29 01:05:51;;;;;;;13.98;7.93;;;6.80;99.90;;;;;;4999202;28;20083;-81
2022/01/29 01:08:17;;;;;;;8.18;4.65;;;6.90;99.90;;;;;;4991414;28;20038;-82
2022/01/29 01:10:43;;;;;;;13.95;5.60;;;7.00;99.90;;;;;;4992768;28;20048;-83
2022/01/29 01:13:08;;;;;;;7.68;4.80;;;6.90;99.90;;;;;;4982203;28;20134;-84
2022/01/29 01:15:34;;;;;;;11.23;6.40;;;7.00;99.90;;;;;;4990538;28;20050;-84
2022/01/29 01:18:00;;;;;;;13.35;5.35;;;7.00;99.90;;;;;;4976403;28;20065;-84
2022/01/29 01:20:27;;;;;;;7.85;4.45;;;7.10;99.90;;;;;;4985580;28;20488;-84
2022/01/29 01:22:52;;;;;;;10.15;6.68;;;7.10;99.90;;;;;;4995378;28;20078;-83
2022/01/29 01:25:18;;;;;;;11.63;6.53;;;7.10;99.90;;;;;;4995878;28;20522;-83
2022/01/29 01:27:44;;;;;;;9.75;4.57;;;7.10;99.90;;;;;;4998908;28;20046;-84
2022/01/29 01:30:10;;;;;;;8.45;5.72;;;7.10;99.90;;;;;;5004063;28;20037;-85
2022/01/29 01:32:37;;;;;;;17.00;6.40;;;7.20;99.90;;;;;;4978824;28;20081;-86
2022/01/29 01:35:27;;;;;;;5.55;4.28;;;7.20;99.90;;;;;;4985776;28;20038;-83
2022/01/29 01:38:00;;;;;;;13.30;7.18;;;7.20;99.90;;;;;;4995592;28;20104;-84
2022/01/29 01:40:27;;;;;;;9.82;5.93;;;7.20;99.90;;;;;;4998503;28;20042;-85
2022/01/29 01:42:59;;;;;;;8.27;5.93;;;7.20;99.90;;;;;;4997515;28;20055;-84
2022/01/29 01:45:25;;;;;;;7.88;5.50;;;7.20;99.90;;;;;;5008087;28;20050;-82
2022/01/29 01:47:51;;;;;;;;;;;7.20;99.90;;;;;;4996548;28;20108;-83
2022/01/29 01:50:16;;;;;;;12.07;5.85;;;7.30;99.90;;;;;;5000596;28;19918;-85
2022/01/29 01:52:42;;;;;;;15.75;7.47;;;7.30;99.90;;;;;;5008389;28;20038;-86
2022/01/29 01:55:08;;;;;;;13.27;5.25;;;7.40;99.90;;;;;;4999315;28;20545;-86
2022/01/29 01:57:34;;;;;;;11.07;5.60;;;7.40;99.90;;;;;;4994805;28;20054;-86
2022/01/29 02:00:01;;;;;;;16.33;6.10;;;7.40;99.90;;;;;;4994274;28;20104;-83
2022/01/29 02:02:27;;;;;;;11.00;7.55;;;7.40;99.90;;;;;;4990601;28;20038;-81
2022/01/29 02:04:52;;;;;;;;;;;7.40;99.90;;;;;;4993385;28;20038;-85
2022/01/29 02:07:18;;;;;;;11.88;5.85;;;7.40;99.90;;;;;;4992859;28;20330;-85
2022/01/29 02:09:45;;;;;;;;;;;7.40;99.90;;;;;;4996294;28;20046;-83
2022/01/29 02:12:12;;;;;;;13.10;6.22;;;7.50;99.90;;;;;;4997800;28;19924;-85
2022/01/29 02:14:39;;;;;;;9.10;5.45;;;7.40;99.90;;;;;;5003983;28;20045;-86
2022/01/29 02:17:05;;;;;;;16.45;6.68;;;7.50;99.90;;;;;;4998094;28;20042;-85
2022/01/29 02:19:32;;;;;;;9.85;6.10;;;7.60;99.90;;;;;;4999261;28;20041;-86
2022/01/29 02:21:59;;;;;;;14.48;6.00;;;7.50;99.90;;;;;;4981180;28;20129;-86
2022/01/29 02:24:25;;;;;;;10.18;4.88;;;7.50;99.90;;;;;;4994333;28;20062;-84
2022/01/29 02:26:51;;;;;;;;;;;7.60;99.90;;;;;;4994033;28;20038;-85
2022/01/29 02:29:18;;;;;;;12.65;6.38;;;7.90;99.90;;;;;;5009659;28;20008;-84
2022/01/29 02:31:46;;;;;;;17.23;4.53;;;7.70;99.90;;;;;;4997722;28;20046;-84
2022/01/29 02:34:12;;;;;;;13.48;5.65;;;7.70;99.90;;;;;;4976953;28;20046;-85
2022/01/29 02:36:37;;;;;;;12.73;5.32;;;7.90;99.90;;;;;;4998246;28;20046;-82
2022/01/29 02:39:03;;;;;;;16.77;6.47;;;7.70;99.90;;;;;;4988027;28;20125;-83
2022/01/29 02:41:29;;;;;;;12.02;6.35;;;7.80;99.90;;;;;;4982090;28;20038;-84
2022/01/29 02:44:00;;;;;;;17.25;6.28;;;7.80;99.90;;;;;;5016372;28;20054;-85
2022/01/29 02:46:41;;;;;;;12.70;6.90;;;7.80;99.90;;;;;;4984901;28;20049;-85
2022/01/29 02:49:06;;;;;;;13.05;5.63;;;7.80;99.90;;;;;;5008542;28;20041;-85
2022/01/29 02:51:32;;;;;;;17.90;6.45;;;7.80;99.90;;;;;;5006658;28;20244;-85
2022/01/29 02:53:58;;;;;;;8.50;4.70;;;7.80;99.90;;;;;;5004035;28;20125;-85
2022/01/29 02:56:23;;;;;;;9.82;6.13;;;7.80;99.90;;;;;;4999223;28;20101;-84
2022/01/29 02:58:49;;;;;;;13.95;7.05;;;7.80;99.90;;;;;;4996954;28;20046;-85
2022/01/29 03:01:15;;;;;;;14.40;6.82;;;7.90;99.90;;;;;;4926679;28;1126301;-82
2022/01/29 03:03:41;;;;;;;16.67;7.50;;;7.90;99.90;;;;;;5008641;28;20038;-82
2022/01/29 03:06:09;;;;;;;6.55;4.07;;;8.00;99.90;;;;;;4982733;28;20042;-86
2022/01/29 03:08:35;;;;;;;13.68;5.65;;;8.00;99.90;;;;;;4952046;28;20038;-86
2022/01/29 03:11:01;;;;;;;;;;;7.90;99.90;;;;;;4995853;28;20057;-84
2022/01/29 03:13:26;;;;;;;12.07;6.60;;;7.90;99.90;;;;;;4984267;28;19922;-85
2022/01/29 03:15:52;;;;;;;9.48;5.13;;;8.00;99.90;;;;;;5004252;28;20129;-84
2022/01/29 03:18:18;;;;;;;13.85;8.43;;;7.90;99.90;;;;;;4995450;28;20073;-85
2022/01/29 03:20:43;;;;;;;11.98;6.38;;;8.00;99.90;;;;;;4989227;28;20050;-83
2022/01/29 03:23:09;;;;;;;13.32;7.28;;;8.10;99.90;;;;;;4993462;28;20050;-85
2022/01/29 03:25:35;;;;;;;13.50;6.78;;;8.00;99.90;;;;;;4993447;28;20053;-82
2022/01/29 03:28:00;;;;;;;8.80;5.70;;;8.40;99.90;;;;;;5003263;28;20042;-85
2022/01/29 03:30:26;;;;;;;11.30;4.75;;;8.20;99.90;;;;;;5004052;28;20050;-84
2022/01/29 03:32:52;;;;;;;11.13;6.80;;;8.10;99.90;;;;;;4979010;28;20074;-82
2022/01/29 03:35:17;;;;;;;5.25;4.75;;;8.20;99.90;;;;;;4974022;28;20707;-84
2022/01/29 03:37:43;;;;;;;8.50;6.15;;;8.10;99.90;;;;;;5006366;28;20096;-82
2022/01/29 03:40:09;;;;;;;19.05;9.00;;;8.10;99.90;;;;;;4980502;28;20042;-85
2022/01/29 03:42:43;;;;;;;;;;;8.10;99.90;;;;;;4994033;28;20050;-84
2022/01/29 03:45:10;;;;;;;10.05;5.70;;;8.10;99.90;;;;;;4993878;28;19918;-84
2022/01/29 03:47:36;;;;;;;8.30;4.35;;;8.10;99.90;;;;;;4988046;28;20050;-85
2022/01/29 03:50:03;;;;;;;12.85;5.82;;;8.00;99.90;;;;;;4997488;28;20069;-85
2022/01/29 03:52:28;;;;;;;10.32;5.25;;;8.10;99.90;;;;;;4962152;28;20050;-87
2022/01/29 03:54:54;;;;;;;4.35;3.35;;;8.10;99.90;;;;;;5004795;28;20078;-85
2022/01/29 03:57:20;;;;;;;9.80;5.70;;;8.10;99.90;;;;;;4992397;28;20054;-87
2022/01/29 03:59:46;;;;;;;12.20;4.53;;;8.10;99.90;;;;;;4993605;28;20132;-85
2022/01/29 04:02:11;;;;;;;9.48;4.75;;;8.20;99.90;;;;;;5001134;28;20058;-84
2022/01/29 04:04:37;;;;;;;9.18;4.97;;;8.10;99.90;;;;;;4981362;28;20057;-86
2022/01/29 04:07:10;;;;;;;9.98;5.45;;;8.10;99.90;;;;;;4992855;28;20136;-85
2022/01/29 04:09:37;;;;;;;11.35;5.43;;;8.10;99.90;;;;;;4991941;28;20349;-83
2022/01/29 04:12:03;;;;;;;15.43;7.18;;;8.20;99.90;;;;;;4972851;28;20127;-85
2022/01/29 04:14:37;;;;;;;;;;;8.20;99.90;;;;;;4995217;28;20117;-85
2022/01/29 04:17:04;;;;;;;16.50;5.78;;;8.20;99.90;;;;;;4992561;28;19996;-85
2022/01/29 04:19:31;;;;;;;9.80;6.03;;;8.20;99.90;;;;;;5000858;28;20519;-86
2022/01/29 04:21:56;;;;;;;10.80;6.18;;;8.20;99.90;;;;;;4993662;28;20054;-84
2022/01/29 04:24:22;;;;;;;10.77;5.68;;;8.30;99.90;;;;;;4984833;28;20039;-84
2022/01/29 04:26:48;;;;;;;9.80;6.03;;;8.30;99.90;;;;;;4993655;28;20038;-85
2022/01/29 04:29:14;;;;;;;16.70;6.75;;;8.30;99.90;;;;;;4993150;28;20085;-85
2022/01/29 04:32:19;;;;;;;11.30;5.80;;;8.30;99.90;;;;;;4994362;28;20060;-84
2022/01/29 04:34:31;;;;;;;8.65;4.82;;;8.30;99.90;;;;;;4989756;28;20121;-86
2022/01/29 04:36:57;;;;;;;13.88;7.47;;;8.30;99.90;;;;;;4991972;28;20540;-85
2022/01/29 04:39:23;;;;;;;21.80;6.63;;;8.30;99.90;;;;;;4991965;28;20136;-86
2022/01/29 04:41:49;;;;;;;7.22;4.93;;;8.40;99.90;;;;;;4960011;28;20449;-84
2022/01/29 04:44:15;;;;;;;;;;;8.40;99.90;;;;;;4977677;28;20046;-83
2022/01/29 04:46:40;;;;;;;11.23;6.53;;;8.30;99.90;;;;;;5012273;28;20001;-80
2022/01/29 04:49:06;;;;;;;13.95;5.80;;;8.40;99.90;;;;;;4988435;28;20086;-85
2022/01/29 04:51:32;;;;;;;9.45;4.80;;;8.40;99.90;;;;;;4984838;28;20514;-83
2022/01/29 04:53:57;;;;;;;11.07;7.03;;;8.40;99.90;;;;;;4993040;28;20046;-85
2022/01/29 04:56:23;;;;;;;9.57;6.00;;;8.40;99.90;;;;;;4976446;28;20053;-84
2022/01/29 04:58:49;;;;;;;13.32;6.93;;;8.50;99.90;;;;;;4992345;28;20500;-84
2022/01/29 05:01:14;;;;;;;7.97;5.13;;;8.50;99.90;;;;;;4991772;28;20397;-84
2022/01/29 05:03:40;;;;;;;10.23;4.95;;;8.50;99.90;;;;;;5006191;28;20042;-83
2022/01/29 05:06:09;;;;;;;13.30;6.97;;;8.40;99.90;;;;;;4991357;28;20121;-83
2022/01/29 05:08:36;;;;;;;13.18;8.05;;;8.40;99.90;;;;;;4991175;28;20050;-83
2022/01/29 05:11:03;;;;;;;7.47;4.82;;;8.50;99.90;;;;;;4991470;28;20515;-86
2022/01/29 05:13:30;;;;;;;10.43;5.30;;;8.50;99.90;;;;;;4975306;28;20046;-83
2022/01/29 05:16:14;;;;;;;7.60;4.75;;;8.50;99.90;;;;;;4984701;28;20116;-85
2022/01/29 05:27:03;;;;;;;22.73;8.45;;;8.50;99.90;;;;;;4987619;28;20042;-84
2022/01/29 05:29:31;;;;;;;11.82;5.75;;;8.50;99.90;;;;;;4967950;28;20310;-84
2022/01/29 05:31:59;;;;;;;8.57;4.85;;;8.50;99.90;;;;;;4986253;28;20042;-85
2022/01/29 05:34:24;;;;;;;16.02;5.93;;;8.50;99.90;;;;;;4978835;28;20149;-83
2022/01/29 05:36:50;;;;;;;11.57;7.38;;;8.50;99.90;;;;;;5008943;28;20128;-83
2022/01/29 05:39:17;;;;;;;14.05;7.45;;;8.50;99.90;;;;;;4992628;28;20108;-83
2022/01/29 05:41:43;;;;;;;9.23;6.32;;;8.50;99.90;;;;;;4991040;28;20039;-83
2022/01/29 05:44:08;;;;;;;12.32;4.80;;;8.50;99.90;;;;;;4995045;28;20365;-84
2022/01/29 05:46:34;;;;;;;25.15;7.38;;;8.40;99.90;;;;;;4993770;28;20038;-84
2022/01/29 05:49:00;;;;;;;7.18;4.95;;;8.40;99.90;;;;;;4995536;28;20049;-85
2022/01/29 05:51:30;;;;;;;13.52;8.38;;;8.40;99.90;;;;;;4994515;28;20045;-84
2022/01/29 05:54:00;;;;;;;18.48;5.45;;;8.60;99.90;;;;;;4984283;28;20049;-83
2022/01/29 05:56:27;;;;;;;12.75;5.30;;;8.50;99.90;;;;;;5015953;28;20050;-84
2022/01/29 05:58:53;;;;;;;6.70;4.63;;;8.50;99.90;;;;;;4983619;28;20105;-84
2022/01/29 06:01:19;;;;;;;12.00;7.13;;;8.50;99.90;;;;;;4994876;28;20050;-83
2022/01/29 06:03:45;;;;;;;9.77;5.00;;;8.60;99.90;;;;;;4981841;28;20057;-84
2022/01/29 06:06:12;;;;;;;10.98;5.82;;;8.50;99.90;;;;;;4998047;28;20042;-84
2022/01/29 06:08:38;;;;;;;9.40;5.20;;;8.60;99.90;;;;;;4999015;28;20034;-86
2022/01/29 06:11:04;;;;;;;13.73;6.00;;;8.60;99.90;;;;;;4996196;28;20045;-84
2022/01/29 06:13:30;;;;;;;14.25;7.63;;;8.50;99.90;;;;;;5000669;28;20054;-83
2022/01/29 06:15:56;;;;;;;10.23;5.82;;;8.50;99.90;;;;;;5000557;28;20385;-83
2022/01/29 06:18:23;;;;;;;9.32;5.60;;;8.50;99.90;;;;;;4980182;28;20150;-82
2022/01/29 06:20:55;;;;;;;7.38;5.13;;;8.60;99.90;;;;;;5002619;28;20053;-83
2022/01/29 06:23:28;;;;;;;9.40;5.18;;;8.60;99.90;;;;;;5000190;28;20069;-81
2022/01/29 06:25:53;;;;;;;14.10;5.95;;;8.60;99.90;;;;;;5003604;28;20077;-84
2022/01/29 06:28:19;;;;;;;11.10;5.72;;;8.70;99.90;;;;;;4995294;28;20039;-84
2022/01/29 06:30:45;;;;;;;10.07;5.57;;;8.70;99.90;;;;;;5000972;28;20046;-86
2022/01/29 06:33:12;;;;;;;11.90;6.45;;;8.70;99.90;;;;;;5004984;28;20041;-83
2022/01/29 06:35:40;;;;;;;10.02;5.53;;;8.70;99.90;;;;;;4999613;28;20041;-84
2022/01/29 06:38:08;;;;;;;9.25;5.13;;;8.70;99.90;;;;;;5008275;28;20062;-87
2022/01/29 06:40:34;;;;;;;6.43;4.40;;;8.70;99.90;;;;;;5013195;28;20046;-86
2022/01/29 06:43:01;;;;;;;10.25;5.88;;;8.70;99.90;;;;;;5037882;28;20077;-83
2022/01/29 06:45:31;;;;;;;5.50;3.92;;;8.70;99.90;;;;;;5011245;28;20052;-85
2022/01/29 06:47:57;;;;;;;6.57;4.50;;;8.70;99.90;;;;;;5016532;28;20118;-83
2022/01/29 06:50:23;;;;;;;;;;;8.70;99.90;;;;;;5028145;28;20077;-83
2022/01/29 06:52:49;;;;;;;11.68;6.07;;;8.70;99.90;;;;;;5010921;28;20245;-81
2022/01/29 06:55:14;;;;;;;6.70;4.45;;;8.80;99.90;;;;;;5004855;28;20508;-84
2022/01/29 06:57:40;;;;;;;11.35;6.10;;;8.60;99.90;;;;;;4999225;28;20080;-84
2022/01/29 07:00:07;;;;;;;15.35;7.97;;;8.70;99.90;;;;;;4989508;28;20081;-84
2022/01/29 07:02:34;;;;;;;10.55;6.03;;;8.70;99.90;;;;;;5002410;28;20054;-86
2022/01/29 07:05:01;;;;;;;9.85;5.72;;;8.70;99.90;;;;;;5007664;28;20069;-88
2022/01/29 07:07:26;;;;;;;11.68;6.75;;;8.70;99.90;;;;;;5004041;28;20038;-81
2022/01/29 07:09:53;;;;;;;14.93;6.70;;;8.70;99.90;;;;;;5010279;28;20053;-83
2022/01/29 07:12:18;;;;;;;;;;;8.70;99.90;;;;;;4993205;28;20069;-83
2022/01/29 07:14:44;;;;;;;12.88;7.20;;;8.60;99.90;;;;;;5019539;28;19917;-82
2022/01/29 07:17:17;;;;;;;9.60;6.03;;;8.60;99.90;;;;;;5006926;28;20050;-85
2022/01/29 07:19:46;;;;;;;12.77;7.03;;;8.70;99.90;;;;;;4993141;28;20050;-81
2022/01/29 07:22:12;;;;;;;12.65;5.97;;;8.60;99.90;;;;;;4979624;28;20042;-84
2022/01/29 07:24:39;;;;;;;11.15;7.15;;;8.60;99.90;;;;;;5003188;28;20042;-86
2022/01/29 07:27:06;;;;;;;9.25;6.30;;;8.60;99.90;;;;;;4997671;28;20034;-83
2022/01/29 07:29:32;;;;;;;12.50;5.05;;;8.60;99.90;;;;;;5005562;28;20432;-84
2022/01/29 07:31:58;;;;;;;13.00;7.95;;;8.60;99.90;;;;;;5003908;28;20108;-82
2022/01/29 07:34:25;;;;;;;6.10;4.55;;;8.70;99.90;;;;;;5005205;28;20578;-85
2022/01/29 07:36:52;;;;;;;10.90;5.55;;;8.70;99.90;;;;;;4985853;28;20185;-84
2022/01/29 07:39:18;;;;;;;7.35;4.55;;;8.70;99.90;;;;;;4987584;28;20557;-84
2022/01/29 07:41:45;;;;;;;12.40;4.53;;;8.70;99.90;;;;;;4963889;28;20046;-84
2022/01/29 07:44:11;;;;;;;7.75;4.72;;;8.70;99.90;;;;;;4989317;28;20506;-85
2022/01/29 07:46:36;;;;;;;13.57;6.00;;;8.60;99.90;;;;;;4997313;28;20045;-83
2022/01/29 07:49:02;;;;;;;11.80;5.47;;;8.60;99.90;;;;;;4992457;28;20193;-85
2022/01/29 07:51:28;;;;;;;9.32;4.93;;;8.60;99.90;;;;;;4990365;28;20045;-84
2022/01/29 07:53:54;;;;;;;6.80;5.15;;;8.60;99.90;;;;;;4976697;28;20421;-81
2022/01/29 07:56:20;;;;;;;8.85;5.05;;;8.60;99.90;;;;;;4975118;28;20518;-83
2022/01/29 07:58:47;;;;;;;;;;;8.60;99.90;;;;;;4990460;28;20038;-82
2022/01/29 08:01:13;;;;;;;10.68;5.88;;;8.50;99.90;;;;;;4994732;28;19926;-82
2022/01/29 08:03:40;;;;;;;8.80;4.85;;;8.50;99.90;;;;;;4992106;28;20054;-79
2022/01/29 08:06:05;;;;;;;11.07;5.82;;;8.50;99.90;;;;;;4991890;28;20034;-82
2022/01/29 08:08:31;;;;;;;11.15;6.07;;;8.50;99.90;;;;;;4990466;28;20049;-81
2022/01/29 08:10:57;;;;;;;9.35;5.45;;;8.50;99.90;;;;;;4992658;28;20155;-81
2022/01/29 08:13:23;;;;;;;11.73;7.53;;;8.50;99.90;;;;;;4992544;28;20049;-81
2022/01/29 08:15:49;;;;;;;8.65;4.90;;;8.60;99.90;;;;;;4994830;28;20050;-79
2022/01/29 08:18:15;;;;;;;5.20;3.28;;;8.70;99.90;;;;;;4978036;28;20168;-82
2022/01/29 08:20:40;;;;;;;;;;;8.60;99.90;;;;;;5005193;28;20549;-80
2022/01/29 08:23:07;;;;;;;6.18;3.75;;;8.70;99.90;;;;;;4980971;28;19928;-80
2022/01/29 08:25:34;;;;;;;9.00;4.07;;;8.80;99.90;;;;;;4997722;28;20384;-82
2022/01/29 08:28:00;;;;;;;8.13;3.30;;;8.80;99.90;;;;;;4993331;28;20081;-83
2022/01/29 08:30:25;;;;;;;6.60;4.40;;;8.80;99.90;;;;;;4995730;28;20042;-83
2022/01/29 08:32:52;;;;;;;12.15;7.00;;;8.80;99.90;;;;;;4999457;28;20042;-82
2022/01/29 08:35:17;;;;;;;5.28;3.42;;;8.90;99.90;;;;;;4992960;28;20042;-84
2022/01/29 08:37:45;;;;;;;8.07;5.32;;;8.90;99.90;;;;;;4975645;28;20081;-83
2022/01/29 08:40:12;;;;;;;8.77;3.35;;;9.00;99.90;;;;;;4998884;28;20042;-82
2022/01/29 08:42:38;;;;;;;6.25;3.75;;;9.00;99.90;;;;;;5001161;28;20070;-80
2022/01/29 08:45:04;;;;;;;;;;;9.00;99.90;;;;;;4997549;28;20085;-82
2022/01/29 08:47:30;;;;;;;7.68;3.45;;;9.00;99.90;;;;;;5004511;28;20394;-80
2022/01/29 08:49:56;;;;;;;7.97;3.60;;;9.10;99.90;;;;;;4981076;28;20046;-76
2022/01/29 08:52:22;;;;;;;4.13;2.55;;;9.10;99.90;;;;;;4973096;28;20030;-75
2022/01/29 08:54:48;;;;;;;;;;;9.10;99.90;;;;;;4990282;28;20050;-73
2022/01/29 08:57:13;;;;;;;6.75;3.53;;;9.20;99.90;;;;;;4988255;28;19928;-78
2022/01/29 08:59:39;;;;;;;3.92;2.33;;;9.30;99.90;;;;;;4992166;28;20082;-76
2022/01/29 09:02:05;;;;;;;7.97;2.95;;;9.40;99.90;;;;;;4988295;28;20419;-76
2022/01/29 09:04:31;;;;;;;4.95;2.90;;;9.40;99.90;;;;;;4985451;28;20039;-77
2022/01/29 09:06:56;;;;;;;8.05;3.88;;;9.50;99.90;;;;;;4987831;28;20157;-79
2022/01/29 09:09:26;;;;;;;5.18;2.47;;;9.50;99.90;;;;;;4987474;28;20054;-75
2022/01/29 09:11:52;;;;;;;4.25;2.60;;;9.60;99.90;;;;;;4998457;28;20061;-76
2022/01/29 09:14:19;;;;;;;;;;;9.50;99.90;;;;;;4989449;28;20057;-76
2022/01/29 09:16:44;;;;;;;3.27;2.20;;;9.50;99.90;;;;;;4978197;28;20337;-74
2022/01/29 09:19:10;;;;;;;7.22;3.97;;;9.50;99.90;;;;;;4970637;28;20297;-75
2022/01/29 09:21:36;;;;;;;;;;;9.50;99.90;;;;;;4990641;28;22292;-74
2022/01/29 09:24:02;;;;;;;7.13;3.00;;;9.50;99.90;;;;;;5012254;28;19929;-75
2022/01/29 09:26:28;;;;;;;5.63;2.78;;;9.50;99.90;;;;;;4987982;28;20042;-75
2022/01/29 09:28:54;;;;;;;1.95;1.80;;;9.50;99.90;;;;;;4992280;28;20129;-75
2022/01/29 09:31:20;;;;;;;4.93;3.25;;;9.60;99.90;;;;;;4988280;28;20042;-80
2022/01/29 09:33:46;;;;;;;6.30;3.92;;;9.60;99.90;;;;;;4987746;28;20092;-75
2022/01/29 09:36:11;;;;;;;7.90;3.70;;;9.60;99.90;;;;;;4989869;28;20046;-76
2022/01/29 09:38:43;;;;;;;5.57;3.25;;;9.60;99.90;;;;;;4988105;28;20046;-78
2022/01/29 09:41:09;;;;;;;3.50;2.50;;;9.70;99.90;;;;;;4989958;28;20672;-76
2022/01/29 09:43:35;;;;;;;7.25;3.03;;;9.70;99.90;;;;;;4991115;28;20050;-78
2022/01/29 09:46:02;;;;;;;6.72;3.50;;;9.70;99.90;;;;;;4986041;28;20045;-80
2022/01/29 09:48:34;;;;;;;4.00;2.28;;;9.70;99.90;;;;;;4976462;28;20065;-79
2022/01/29 09:50:59;;;;;;;5.53;2.83;;;9.70;99.90;;;;;;4970144;28;20038;-79
2022/01/29 09:53:25;;;;;;;3.13;1.77;;;9.80;99.90;;;;;;4992531;28;20507;-81
2022/01/29 09:55:53;;;;;;;1.98;1.40;;;9.80;99.90;;;;;;4976441;28;20042;-80
2022/01/29 09:58:19;;;;;;;3.47;2.25;;;9.80;99.90;;;;;;4963771;28;20536;-79
2022/01/29 10:00:45;;;;;;;2.78;1.77;;;9.80;99.90;;;;;;4984330;28;20052;-79
2022/01/29 10:03:11;;;;;;;3.63;2.42;;;9.80;99.90;;;;;;4939591;28;20050;-76
2022/01/29 10:05:41;;;;;;;7.88;2.05;;;9.90;99.90;;;;;;4989289;28;20057;-75
2022/01/29 10:08:07;;;;;;;6.47;2.42;;;9.90;99.90;;;;;;4995578;28;20100;-77
2022/01/29 10:10:42;;;;;;;3.08;1.88;;;10.00;99.90;;;;;;4984919;28;20714;-77
2022/01/29 10:13:46;;;;;;;5.63;3.13;;;10.00;99.90;;;;;;4988315;28;20054;-76
2022/01/29 10:16:20;;;;;;;4.13;2.33;;;10.00;99.90;;;;;;4904505;29;20592;-76
2022/01/29 10:19:11;;;;;;;3.35;2.20;;;10.00;99.90;;;;;;4935519;29;20056;-77
2022/01/29 10:21:42;;;;;;;10.15;2.33;;;10.00;99.90;;;;;;4967703;28;20066;-76
2022/01/29 10:24:13;;;;;;;5.03;2.42;;;10.00;99.90;;;;;;4984163;28;20043;-82
2022/01/29 10:26:42;;;;;;;3.15;1.67;;;10.00;99.90;;;;;;4965362;28;20045;-79
2022/01/29 10:29:14;;;;;;;2.33;1.33;;;10.10;99.90;;;;;;4960635;28;20043;-78
2022/01/29 10:31:45;;;;;;;4.97;2.28;;;10.00;99.90;;;;;;4979731;28;20064;-77
2022/01/29 10:34:17;;;;;;;4.25;2.03;;;10.00;99.90;;;;;;4989399;28;20057;-76
2022/01/29 10:36:42;;;;;;;4.95;1.42;;;10.10;99.90;;;;;;4984570;28;20558;-79
2022/01/29 10:39:08;;;;;;;3.45;2.28;;;10.20;99.90;;;;;;4989275;28;20046;-76
2022/01/29 10:41:34;;;;;;;6.47;2.03;;;10.10;99.90;;;;;;5004625;28;20050;-77
2022/01/29 10:44:18;;;;;;;3.97;2.67;;;10.10;99.90;;;;;;4989491;28;20042;-76
2022/01/29 10:46:55;;;;;;;3.30;2.10;;;10.20;99.90;;;;;;4994020;28;20384;-76
2022/01/29 10:49:32;;;;;;;5.55;1.95;;;10.20;99.90;;;;;;4986064;28;20035;-76
2022/01/29 10:52:00;;;;;;;3.20;1.90;;;10.20;99.90;;;;;;5000711;28;20039;-79
2022/01/29 10:54:27;;;;;;;4.43;2.00;;;10.20;99.90;;;;;;4986602;28;20499;-76
2022/01/29 10:57:02;;;;;;;3.67;1.60;;;10.20;99.90;;;;;;4993648;28;20257;-75
2022/01/29 10:59:30;;;;;;;3.92;1.95;;;10.20;99.90;;;;;;4977961;28;20053;-75
2022/01/29 11:01:59;;;;;;;4.30;2.08;;;10.10;99.90;;;;;;4979212;28;20058;-76
2022/01/29 11:04:28;;;;;;;5.97;1.88;;;10.20;99.90;;;;;;4994145;28;20057;-77
2022/01/29 11:06:55;;;;;;;4.90;1.65;;;10.10;99.90;;;;;;4997262;28;20416;-77
2022/01/29 11:09:22;;;;;;;3.83;2.08;;;10.20;99.90;;;;;;5012555;28;20082;-76
2022/01/29 11:11:49;;;;;;;2.47;1.65;;;10.20;99.90;;;;;;4975315;28;20046;-77
2022/01/29 11:14:20;;;;;;;2.97;1.80;;;10.30;99.90;;;;;;4991284;28;20038;-76
2022/01/29 11:16:47;;;;;;;2.85;1.63;;;10.40;99.90;;;;;;4991599;28;20078;-78
2022/01/29 11:19:16;;;;;;;3.03;1.73;;;10.30;99.90;;;;;;4990724;28;20038;-75
2022/01/29 11:21:43;;;;;;;5.35;1.65;;;10.30;99.90;;;;;;4974037;28;20047;-78
2022/01/29 11:24:11;;;;;;;2.45;1.50;;;10.30;99.90;;;;;;4991940;28;20047;-76
2022/01/29 11:26:39;;;;;;;3.47;2.10;;;10.30;99.90;;;;;;4991835;28;20125;-77
2022/01/29 11:29:25;;;;;;;2.88;1.63;;;10.30;99.90;;;;;;4989787;28;20046;-76
2022/01/29 11:32:22;;;;;;;5.40;2.08;;;10.40;99.90;;;;;;4991332;28;20043;-77
2022/01/29 11:35:05;;;;;;;1.23;1.13;;;10.40;99.90;;;;;;5009048;28;20039;-77
2022/01/29 11:37:39;;;;;;;2.67;1.35;;;10.40;99.90;;;;;;5007348;28;20046;-76
2022/01/29 11:40:12;;;;;;;1.83;1.30;;;10.30;99.90;;;;;;4992814;28;20108;-76
2022/01/29 11:42:50;;;;;;;3.42;1.85;;;10.30;99.90;;;;;;5006791;28;20042;-77
2022/01/29 11:45:40;;;;;;;3.38;1.63;;;10.40;99.90;;;;;;5004665;28;20039;-78
2022/01/29 11:48:08;;;;;;;5.05;1.75;;;10.40;99.90;;;;;;4988137;28;20042;-77
2022/01/29 11:50:33;;;;;;;5.32;1.73;;;10.50;99.90;;;;;;4991662;28;20053;-76
2022/01/29 11:53:04;;;;;;;4.30;1.70;;;10.50;99.90;;;;;;4993692;28;20042;-75
2022/01/29 11:55:39;;;;;;;1.67;0.93;;;10.50;99.90;;;;;;4987857;28;20038;-75
2022/01/29 11:58:31;;;;;;;4.10;1.70;;;10.50;99.90;;;;;;4992316;28;20130;-76
2022/01/29 12:00:59;;;;;;;2.63;1.48;;;10.60;99.90;;;;;;4988499;28;20507;-76
2022/01/29 12:03:38;;;;;;;6.18;2.15;;;10.60;99.90;;;;;;4981507;28;20500;-76
2022/01/29 12:09:18;;;;;;;4.85;1.55;;;10.80;99.90;;;;;;4990865;28;20125;-75
2022/01/29 12:12:12;;;;;;;3.03;1.50;;;10.90;99.90;;;;;;4991063;28;20123;-75
2022/01/29 12:14:38;;;;;;;3.05;1.52;;;10.90;99.90;;;;;;4990359;28;20050;-76
2022/01/29 12:17:05;;;;;;;3.20;1.20;;;10.90;99.90;;;;;;4984403;28;20052;-76
2022/01/29 12:19:46;;;;;;;4.60;1.05;;;10.90;99.90;;;;;;4988569;28;20395;-77
2022/01/29 12:22:18;;;;;;;1.58;1.30;;;10.90;99.90;;;;;;4986643;28;20380;-77
2022/01/29 12:24:55;;;;;;;1.70;1.10;;;11.00;99.90;;;;;;4989233;28;20061;-78
2022/01/29 12:27:23;;;;;;;3.92;1.70;;;11.00;99.90;;;;;;4984314;28;20034;-78
2022/01/29 12:29:48;;;;;;;5.47;1.83;;;11.00;99.90;;;;;;4974484;28;20408;-79
2022/01/29 12:32:14;;;;;;;2.88;1.63;;;11.00;99.90;;;;;;4989430;28;20042;-78
2022/01/29 12:34:40;;;;;;;2.92;1.50;;;11.10;99.90;;;;;;4987967;28;20141;-77
2022/01/29 12:37:10;;;;;;;;;;;11.20;99.90;;;;;;4988273;28;20038;-77
2022/01/29 12:39:37;;;;;;;2.25;1.17;;;11.20;99.90;;;;;;4983871;28;19928;-75
2022/01/29 12:42:23;;;;;;;3.20;1.70;;;11.20;99.90;;;;;;4979630;28;20061;-76
2022/01/29 12:44:57;;;;;;;2.05;1.42;;;11.20;99.90;;;;;;4985397;28;20061;-76
2022/01/29 12:47:34;;;;;;;2.20;1.25;;;11.30;99.90;;;;;;4987875;28;20070;-75
2022/01/29 12:50:00;;;;;;;2.10;1.10;;;11.30;99.90;;;;;;4984941;28;20069;-76
2022/01/29 12:52:28;;;;;;;0.93;0.90;;;11.30;99.90;;;;;;4994180;28;20042;-75
2022/01/29 12:55:02;;;;;;;3.35;1.60;;;11.20;99.90;;;;;;4972100;28;20048;-75
2022/01/29 12:57:41;;;;;;;4.00;1.35;;;11.20;99.90;;;;;;4977943;28;20057;-75
2022/01/29 13:00:10;;;;;;;4.07;1.83;;;11.20;99.90;;;;;;4990559;28;20515;-78
2022/01/29 13:02:36;;;;;;;2.08;1.20;;;11.20;99.90;;;;;;4973498;28;20100;-75
2022/01/29 13:05:02;;;;;;;3.47;1.60;;;11.20;99.90;;;;;;4975586;28;20476;-77
2022/01/29 13:07:28;;;;;;;;;;;11.20;99.90;;;;;;5008127;28;20049;-77
2022/01/29 13:09:55;;;;;;;5.57;1.63;;;11.10;99.90;;;;;;5004548;28;19917;-76